Camp Dodge, Iowa
Current Conditions -  °F | °C
As of 3:55 PM on Sunday 23 Nov 2014 (Local Time) from KIKV Reporting Station
Drizzle Drizzle  
Wind Chill: 42°   Ceiling: 900
Heat Index: 48°   Visibility: 4mi
Dew Point: 46°   Wind: 15mph
Humidity: 93%   Direction: 320°NW
Pressure: 29.36"   Gusts: 22mph
Location:  41.689°N, 93.7182°W
Report Text: KIKV 232155Z AUTO 32013G19KT 4SM -DZ BKN009 BKN014 BKN021 09/08 A2936 RMK AO2 P0004
Loading
Personal Weather Stations






























Interactive Weather Map New forecast layout! Learn more

10-Day Weather Forecast

Advertisements
Track Severe Weather on mobile